sensor_id;sensor_type;location;lat;lon;timestamp;P1;durP1;ratioP1;P2;durP2;ratioP2
32649;SDS011;19055;51.064;3.712;2023-02-05T00:02:06;8.40;;;4.72;;
32649;SDS011;19055;51.064;3.712;2023-02-05T00:04:33;7.43;;;4.30;;
32649;SDS011;19055;51.064;3.712;2023-02-05T00:07:00;8.27;;;4.22;;
32649;SDS011;19055;51.064;3.712;2023-02-05T00:09:26;5.35;;;3.97;;
32649;SDS011;19055;51.064;3.712;2023-02-05T00:11:55;5.45;;;3.83;;
32649;SDS011;19055;51.064;3.712;2023-02-05T00:14:21;9.23;;;3.53;;
32649;SDS011;19055;51.064;3.712;2023-02-05T00:16:47;6.38;;;4.13;;
32649;SDS011;19055;51.064;3.712;2023-02-05T00:19:13;6.00;;;4.18;;
32649;SDS011;19055;51.064;3.712;2023-02-05T00:21:39;6.18;;;4.28;;
32649;SDS011;19055;51.064;3.712;2023-02-05T00:24:05;4.88;;;3.90;;
32649;SDS011;19055;51.064;3.712;2023-02-05T00:26:31;5.10;;;3.65;;
32649;SDS011;19055;51.064;3.712;2023-02-05T00:28:57;6.68;;;4.40;;
32649;SDS011;19055;51.064;3.712;2023-02-05T00:31:23;6.53;;;4.07;;
32649;SDS011;19055;51.064;3.712;2023-02-05T00:33:50;8.13;;;3.70;;
32649;SDS011;19055;51.064;3.712;2023-02-05T00:36:16;4.82;;;3.50;;
32649;SDS011;19055;51.064;3.712;2023-02-05T00:38:43;7.68;;;3.67;;
32649;SDS011;19055;51.064;3.712;2023-02-05T00:41:11;4.47;;;3.28;;
32649;SDS011;19055;51.064;3.712;2023-02-05T00:43:38;5.97;;;3.78;;
32649;SDS011;19055;51.064;3.712;2023-02-05T00:46:04;7.22;;;4.07;;
32649;SDS011;19055;51.064;3.712;2023-02-05T00:48:30;6.95;;;3.58;;
32649;SDS011;19055;51.064;3.712;2023-02-05T00:50:56;5.75;;;3.75;;
32649;SDS011;19055;51.064;3.712;2023-02-05T00:53:22;5.68;;;3.38;;
32649;SDS011;19055;51.064;3.712;2023-02-05T00:55:48;5.68;;;3.47;;
32649;SDS011;19055;51.064;3.712;2023-02-05T00:58:14;5.45;;;2.95;;
32649;SDS011;19055;51.064;3.712;2023-02-05T01:00:41;8.30;;;4.20;;
32649;SDS011;19055;51.064;3.712;2023-02-05T01:03:07;4.70;;;3.47;;
32649;SDS011;19055;51.064;3.712;2023-02-05T01:05:33;7.68;;;3.38;;
32649;SDS011;19055;51.064;3.712;2023-02-05T01:08:00;7.78;;;3.97;;
32649;SDS011;19055;51.064;3.712;2023-02-05T01:10:26;4.60;;;3.08;;
32649;SDS011;19055;51.064;3.712;2023-02-05T01:12:52;5.97;;;3.13;;
32649;SDS011;19055;51.064;3.712;2023-02-05T01:15:18;5.05;;;3.30;;
32649;SDS011;19055;51.064;3.712;2023-02-05T01:17:44;5.38;;;3.17;;
32649;SDS011;19055;51.064;3.712;2023-02-05T01:20:10;3.60;;;2.97;;
32649;SDS011;19055;51.064;3.712;2023-02-05T01:22:36;4.20;;;3.38;;
32649;SDS011;19055;51.064;3.712;2023-02-05T01:25:02;5.28;;;3.20;;
32649;SDS011;19055;51.064;3.712;2023-02-05T01:27:30;5.22;;;3.33;;
32649;SDS011;19055;51.064;3.712;2023-02-05T01:29:57;5.68;;;3.50;;
32649;SDS011;19055;51.064;3.712;2023-02-05T01:32:23;5.43;;;3.38;;
32649;SDS011;19055;51.064;3.712;2023-02-05T01:34:49;6.85;;;3.20;;
32649;SDS011;19055;51.064;3.712;2023-02-05T01:37:15;6.50;;;3.20;;
32649;SDS011;19055;51.064;3.712;2023-02-05T01:39:40;4.95;;;3.28;;
32649;SDS011;19055;51.064;3.712;2023-02-05T01:42:20;5.25;;;3.17;;
32649;SDS011;19055;51.064;3.712;2023-02-05T01:47:54;5.32;;;3.10;;
32649;SDS011;19055;51.064;3.712;2023-02-05T01:52:59;5.10;;;3.00;;
32649;SDS011;19055;51.064;3.712;2023-02-05T01:55:29;6.25;;;2.65;;
32649;SDS011;19055;51.064;3.712;2023-02-05T01:57:55;3.65;;;2.90;;
32649;SDS011;19055;51.064;3.712;2023-02-05T02:00:23;4.82;;;3.00;;
32649;SDS011;19055;51.064;3.712;2023-02-05T02:02:48;5.25;;;2.55;;
32649;SDS011;19055;51.064;3.712;2023-02-05T02:05:15;5.60;;;3.20;;
32649;SDS011;19055;51.064;3.712;2023-02-05T02:07:42;3.67;;;2.60;;
32649;SDS011;19055;51.064;3.712;2023-02-05T02:10:08;4.30;;;2.70;;
32649;SDS011;19055;51.064;3.712;2023-02-05T02:12:37;3.88;;;2.83;;
32649;SDS011;19055;51.064;3.712;2023-02-05T02:15:08;4.88;;;2.70;;
32649;SDS011;19055;51.064;3.712;2023-02-05T02:17:40;4.90;;;2.42;;
32649;SDS011;19055;51.064;3.712;2023-02-05T02:20:13;4.72;;;2.90;;
32649;SDS011;19055;51.064;3.712;2023-02-05T02:30:48;6.20;;;2.65;;
32649;SDS011;19055;51.064;3.712;2023-02-05T02:35:56;5.38;;;2.95;;
32649;SDS011;19055;51.064;3.712;2023-02-05T02:38:40;4.55;;;2.78;;
32649;SDS011;19055;51.064;3.712;2023-02-05T02:41:17;4.35;;;2.63;;
32649;SDS011;19055;51.064;3.712;2023-02-05T02:48:55;4.32;;;2.80;;
32649;SDS011;19055;51.064;3.712;2023-02-05T02:51:26;3.90;;;2.67;;
32649;SDS011;19055;51.064;3.712;2023-02-05T02:53:55;2.95;;;2.15;;
32649;SDS011;19055;51.064;3.712;2023-02-05T02:56:23;3.72;;;2.53;;
32649;SDS011;19055;51.064;3.712;2023-02-05T02:58:53;3.88;;;2.30;;
32649;SDS011;19055;51.064;3.712;2023-02-05T03:01:23;5.47;;;2.80;;
32649;SDS011;19055;51.064;3.712;2023-02-05T03:03:53;3.63;;;2.67;;
32649;SDS011;19055;51.064;3.712;2023-02-05T03:06:27;5.20;;;2.40;;
32649;SDS011;19055;51.064;3.712;2023-02-05T03:09:00;5.20;;;2.67;;
32649;SDS011;19055;51.064;3.712;2023-02-05T03:11:36;3.65;;;2.53;;
32649;SDS011;19055;51.064;3.712;2023-02-05T03:14:02;5.47;;;2.90;;
32649;SDS011;19055;51.064;3.712;2023-02-05T03:16:32;3.63;;;2.65;;
32649;SDS011;19055;51.064;3.712;2023-02-05T03:18:58;2.78;;;2.40;;
32649;SDS011;19055;51.064;3.712;2023-02-05T03:21:25;4.50;;;2.55;;
32649;SDS011;19055;51.064;3.712;2023-02-05T03:23:57;3.67;;;2.22;;
32649;SDS011;19055;51.064;3.712;2023-02-05T03:26:27;3.92;;;2.42;;
32649;SDS011;19055;51.064;3.712;2023-02-05T03:29:09;5.20;;;2.70;;
32649;SDS011;19055;51.064;3.712;2023-02-05T03:31:48;4.45;;;2.70;;
32649;SDS011;19055;51.064;3.712;2023-02-05T03:34:39;4.38;;;2.67;;
32649;SDS011;19055;51.064;3.712;2023-02-05T03:37:31;3.42;;;2.40;;
32649;SDS011;19055;51.064;3.712;2023-02-05T03:55:54;4.88;;;2.90;;
32649;SDS011;19055;51.064;3.712;2023-02-05T03:58:31;4.82;;;2.35;;
32649;SDS011;19055;51.064;3.712;2023-02-05T04:01:04;4.95;;;2.47;;
32649;SDS011;19055;51.064;3.712;2023-02-05T04:03:32;3.78;;;2.22;;
32649;SDS011;19055;51.064;3.712;2023-02-05T04:05:59;5.22;;;2.75;;
32649;SDS011;19055;51.064;3.712;2023-02-05T04:08:25;4.68;;;2.50;;
32649;SDS011;19055;51.064;3.712;2023-02-05T04:10:52;7.25;;;3.03;;
32649;SDS011;19055;51.064;3.712;2023-02-05T04:13:17;5.57;;;3.00;;
32649;SDS011;19055;51.064;3.712;2023-02-05T04:15:43;4.35;;;2.60;;
32649;SDS011;19055;51.064;3.712;2023-02-05T04:18:11;4.13;;;3.03;;
32649;SDS011;19055;51.064;3.712;2023-02-05T04:20:36;4.80;;;2.78;;
32649;SDS011;19055;51.064;3.712;2023-02-05T04:23:04;4.10;;;2.72;;
32649;SDS011;19055;51.064;3.712;2023-02-05T04:25:31;4.75;;;2.47;;
32649;SDS011;19055;51.064;3.712;2023-02-05T04:27:59;3.55;;;2.80;;
32649;SDS011;19055;51.064;3.712;2023-02-05T04:30:25;4.45;;;2.60;;
32649;SDS011;19055;51.064;3.712;2023-02-05T04:32:52;4.32;;;2.90;;
32649;SDS011;19055;51.064;3.712;2023-02-05T04:35:18;5.70;;;2.65;;
32649;SDS011;19055;51.064;3.712;2023-02-05T04:37:45;3.42;;;2.65;;
32649;SDS011;19055;51.064;3.712;2023-02-05T04:40:12;5.90;;;3.20;;
32649;SDS011;19055;51.064;3.712;2023-02-05T04:42:38;5.10;;;3.10;;
32649;SDS011;19055;51.064;3.712;2023-02-05T04:45:04;5.80;;;3.13;;
32649;SDS011;19055;51.064;3.712;2023-02-05T04:47:30;7.95;;;3.65;;
32649;SDS011;19055;51.064;3.712;2023-02-05T04:49:57;6.30;;;3.03;;
32649;SDS011;19055;51.064;3.712;2023-02-05T04:52:22;5.28;;;3.45;;
32649;SDS011;19055;51.064;3.712;2023-02-05T04:54:48;5.90;;;3.13;;
32649;SDS011;19055;51.064;3.712;2023-02-05T04:57:14;5.22;;;2.97;;
32649;SDS011;19055;51.064;3.712;2023-02-05T04:59:40;5.75;;;2.53;;
32649;SDS011;19055;51.064;3.712;2023-02-05T05:02:06;4.88;;;2.63;;
32649;SDS011;19055;51.064;3.712;2023-02-05T05:04:32;3.72;;;2.53;;
32649;SDS011;19055;51.064;3.712;2023-02-05T05:06:58;6.47;;;2.85;;
32649;SDS011;19055;51.064;3.712;2023-02-05T05:09:24;5.10;;;3.40;;
32649;SDS011;19055;51.064;3.712;2023-02-05T05:11:51;8.82;;;3.15;;
32649;SDS011;19055;51.064;3.712;2023-02-05T05:14:17;5.15;;;2.63;;
32649;SDS011;19055;51.064;3.712;2023-02-05T05:16:43;4.22;;;2.83;;
32649;SDS011;19055;51.064;3.712;2023-02-05T05:19:09;4.03;;;2.70;;
32649;SDS011;19055;51.064;3.712;2023-02-05T05:21:35;6.03;;;2.97;;
32649;SDS011;19055;51.064;3.712;2023-02-05T05:24:00;4.90;;;3.05;;
32649;SDS011;19055;51.064;3.712;2023-02-05T05:26:26;5.25;;;2.97;;
32649;SDS011;19055;51.064;3.712;2023-02-05T05:28:53;4.88;;;2.90;;
32649;SDS011;19055;51.064;3.712;2023-02-05T05:31:19;4.60;;;2.70;;
32649;SDS011;19055;51.064;3.712;2023-02-05T05:33:45;6.38;;;2.45;;
32649;SDS011;19055;51.064;3.712;2023-02-05T05:36:11;3.00;;;2.28;;
32649;SDS011;19055;51.064;3.712;2023-02-05T05:38:38;5.25;;;2.72;;
32649;SDS011;19055;51.064;3.712;2023-02-05T05:41:04;4.38;;;2.60;;
32649;SDS011;19055;51.064;3.712;2023-02-05T05:43:50;4.22;;;2.63;;
32649;SDS011;19055;51.064;3.712;2023-02-05T05:46:18;3.63;;;2.08;;
32649;SDS011;19055;51.064;3.712;2023-02-05T05:48:54;3.70;;;2.15;;
32649;SDS011;19055;51.064;3.712;2023-02-05T05:51:22;6.40;;;3.00;;
32649;SDS011;19055;51.064;3.712;2023-02-05T05:53:49;3.42;;;2.25;;
32649;SDS011;19055;51.064;3.712;2023-02-05T05:56:16;3.90;;;2.45;;
32649;SDS011;19055;51.064;3.712;2023-02-05T05:58:42;9.13;;;2.63;;
32649;SDS011;19055;51.064;3.712;2023-02-05T06:01:09;5.80;;;2.58;;
32649;SDS011;19055;51.064;3.712;2023-02-05T06:03:35;6.65;;;2.58;;
32649;SDS011;19055;51.064;3.712;2023-02-05T06:06:02;6.85;;;2.30;;
32649;SDS011;19055;51.064;3.712;2023-02-05T06:08:29;8.93;;;2.17;;
32649;SDS011;19055;51.064;3.712;2023-02-05T06:10:55;5.95;;;2.40;;
32649;SDS011;19055;51.064;3.712;2023-02-05T06:13:21;5.97;;;2.42;;
32649;SDS011;19055;51.064;3.712;2023-02-05T06:15:47;7.38;;;2.10;;
32649;SDS011;19055;51.064;3.712;2023-02-05T06:18:16;4.47;;;2.30;;
32649;SDS011;19055;51.064;3.712;2023-02-05T06:20:42;6.53;;;2.97;;
32649;SDS011;19055;51.064;3.712;2023-02-05T06:23:09;4.75;;;2.10;;
32649;SDS011;19055;51.064;3.712;2023-02-05T06:25:35;7.30;;;2.60;;
32649;SDS011;19055;51.064;3.712;2023-02-05T06:28:01;6.80;;;2.20;;
32649;SDS011;19055;51.064;3.712;2023-02-05T06:30:27;9.60;;;2.83;;
32649;SDS011;19055;51.064;3.712;2023-02-05T06:32:52;6.78;;;2.50;;
32649;SDS011;19055;51.064;3.712;2023-02-05T06:35:18;11.77;;;2.60;;
32649;SDS011;19055;51.064;3.712;2023-02-05T06:37:44;9.07;;;2.67;;
32649;SDS011;19055;51.064;3.712;2023-02-05T06:40:10;6.43;;;2.85;;
32649;SDS011;19055;51.064;3.712;2023-02-05T06:42:37;12.85;;;2.90;;
32649;SDS011;19055;51.064;3.712;2023-02-05T06:45:03;8.30;;;2.38;;
32649;SDS011;19055;51.064;3.712;2023-02-05T06:47:29;13.23;;;3.05;;
32649;SDS011;19055;51.064;3.712;2023-02-05T06:49:55;11.20;;;3.03;;
32649;SDS011;19055;51.064;3.712;2023-02-05T06:52:21;14.70;;;2.65;;
32649;SDS011;19055;51.064;3.712;2023-02-05T06:54:46;13.25;;;3.10;;
32649;SDS011;19055;51.064;3.712;2023-02-05T06:57:12;7.28;;;2.22;;
32649;SDS011;19055;51.064;3.712;2023-02-05T06:59:38;8.50;;;2.67;;
32649;SDS011;19055;51.064;3.712;2023-02-05T07:02:04;6.28;;;2.33;;
32649;SDS011;19055;51.064;3.712;2023-02-05T07:04:30;18.58;;;3.25;;
32649;SDS011;19055;51.064;3.712;2023-02-05T07:06:56;10.57;;;3.42;;
32649;SDS011;19055;51.064;3.712;2023-02-05T07:09:23;12.98;;;2.92;;
32649;SDS011;19055;51.064;3.712;2023-02-05T07:11:49;8.63;;;3.55;;
32649;SDS011;19055;51.064;3.712;2023-02-05T07:14:15;9.00;;;2.58;;
32649;SDS011;19055;51.064;3.712;2023-02-05T07:16:41;10.10;;;2.60;;
32649;SDS011;19055;51.064;3.712;2023-02-05T07:19:07;12.13;;;2.97;;
32649;SDS011;19055;51.064;3.712;2023-02-05T07:21:33;20.65;;;3.28;;
32649;SDS011;19055;51.064;3.712;2023-02-05T07:23:59;11.95;;;3.40;;
32649;SDS011;19055;51.064;3.712;2023-02-05T07:26:25;16.33;;;3.72;;
32649;SDS011;19055;51.064;3.712;2023-02-05T07:28:51;13.75;;;3.38;;
32649;SDS011;19055;51.064;3.712;2023-02-05T07:31:17;14.25;;;2.95;;
32649;SDS011;19055;51.064;3.712;2023-02-05T07:33:44;9.45;;;2.78;;
32649;SDS011;19055;51.064;3.712;2023-02-05T07:36:12;11.73;;;2.55;;
32649;SDS011;19055;51.064;3.712;2023-02-05T07:38:43;18.60;;;3.40;;
32649;SDS011;19055;51.064;3.712;2023-02-05T07:41:11;10.70;;;3.10;;
32649;SDS011;19055;51.064;3.712;2023-02-05T07:43:38;9.23;;;2.70;;
32649;SDS011;19055;51.064;3.712;2023-02-05T07:46:06;18.35;;;2.83;;
32649;SDS011;19055;51.064;3.712;2023-02-05T07:48:34;8.80;;;2.78;;
32649;SDS011;19055;51.064;3.712;2023-02-05T07:51:00;4.80;;;2.67;;
32649;SDS011;19055;51.064;3.712;2023-02-05T07:53:26;10.85;;;2.65;;
32649;SDS011;19055;51.064;3.712;2023-02-05T07:55:52;8.80;;;2.80;;
32649;SDS011;19055;51.064;3.712;2023-02-05T07:58:18;7.07;;;2.50;;
32649;SDS011;19055;51.064;3.712;2023-02-05T08:00:44;7.72;;;2.70;;
32649;SDS011;19055;51.064;3.712;2023-02-05T08:03:10;11.77;;;3.20;;
32649;SDS011;19055;51.064;3.712;2023-02-05T08:05:37;8.57;;;2.35;;
32649;SDS011;19055;51.064;3.712;2023-02-05T08:08:04;7.30;;;2.67;;
32649;SDS011;19055;51.064;3.712;2023-02-05T08:10:30;10.38;;;2.53;;
32649;SDS011;19055;51.064;3.712;2023-02-05T08:12:56;6.47;;;2.67;;
32649;SDS011;19055;51.064;3.712;2023-02-05T08:15:22;8.30;;;2.92;;
32649;SDS011;19055;51.064;3.712;2023-02-05T08:17:48;7.63;;;2.92;;
32649;SDS011;19055;51.064;3.712;2023-02-05T08:20:14;10.93;;;2.90;;
32649;SDS011;19055;51.064;3.712;2023-02-05T08:22:41;6.72;;;2.50;;
32649;SDS011;19055;51.064;3.712;2023-02-05T08:25:12;7.75;;;2.67;;
32649;SDS011;19055;51.064;3.712;2023-02-05T08:27:39;10.75;;;2.70;;
32649;SDS011;19055;51.064;3.712;2023-02-05T08:30:07;7.65;;;2.63;;
32649;SDS011;19055;51.064;3.712;2023-02-05T08:32:35;10.45;;;3.22;;
32649;SDS011;19055;51.064;3.712;2023-02-05T08:35:01;7.30;;;2.67;;
32649;SDS011;19055;51.064;3.712;2023-02-05T08:37:27;7.38;;;2.35;;
32649;SDS011;19055;51.064;3.712;2023-02-05T08:39:53;7.45;;;2.47;;
32649;SDS011;19055;51.064;3.712;2023-02-05T08:42:19;8.93;;;2.60;;
32649;SDS011;19055;51.064;3.712;2023-02-05T08:44:45;6.93;;;2.55;;
32649;SDS011;19055;51.064;3.712;2023-02-05T08:47:12;9.95;;;2.80;;
32649;SDS011;19055;51.064;3.712;2023-02-05T08:49:38;8.30;;;3.00;;
32649;SDS011;19055;51.064;3.712;2023-02-05T08:52:04;6.95;;;2.42;;
32649;SDS011;19055;51.064;3.712;2023-02-05T08:54:30;5.43;;;2.65;;
32649;SDS011;19055;51.064;3.712;2023-02-05T08:56:56;7.75;;;2.88;;
32649;SDS011;19055;51.064;3.712;2023-02-05T08:59:22;7.75;;;3.17;;
32649;SDS011;19055;51.064;3.712;2023-02-05T09:01:47;6.60;;;2.60;;
32649;SDS011;19055;51.064;3.712;2023-02-05T09:04:17;6.97;;;2.58;;
